TimeCST,TemperatureF,Dew PointF,Humidity,Sea Level PressureIn,VisibilityMPH,Wind Direction,Wind SpeedMPH,Gust SpeedMPH,PrecipitationIn,Events,Conditions,WindDirDegrees,DateUTC
12:56 AM,48.0,44.1,86,30.22,10.0,North,4.6,-,N/A,,Clear,360,2011-11-24 06:56:00
1:56 AM,46.0,43.0,89,30.23,10.0,North,5.8,-,N/A,,Clear,360,2011-11-24 07:56:00
2:56 AM,45.0,43.0,93,30.23,10.0,North,6.9,-,N/A,,Clear,360,2011-11-24 08:56:00
3:56 AM,45.0,42.1,90,30.25,10.0,North,6.9,-,N/A,,Clear,10,2011-11-24 09:56:00
5:56 AM,45.0,42.1,90,30.28,10.0,NNE,4.6,-,N/A,,Clear,20,2011-11-24 11:56:00
6:56 AM,45.0,42.1,90,30.30,10.0,NNE,4.6,-,N/A,,Clear,20,2011-11-24 12:56:00
7:56 AM,48.9,43.0,80,30.32,10.0,NE,5.8,-,N/A,,Clear,50,2011-11-24 13:56:00
8:56 AM,54.0,43.0,66,30.33,10.0,East,8.1,-,N/A,,Clear,80,2011-11-24 14:56:00
9:56 AM,59.0,39.9,49,30.33,10.0,East,10.4,-,N/A,,Clear,80,2011-11-24 15:56:00
10:56 AM,62.1,37.0,39,30.32,10.0,East,8.1,-,N/A,,Clear,100,2011-11-24 16:56:00
11:56 AM,64.0,36.0,35,30.29,10.0,Variable,5.8,-,N/A,,Clear,0,2011-11-24 17:56:00
12:56 PM,66.9,33.1,28,30.27,10.0,NE,3.5,-,0.00,Rain,Light Rain,50,2011-11-24 18:56:00
1:56 PM,68.0,32.0,26,30.26,10.0,ENE,5.8,-,0.00,,Clear,70,2011-11-24 19:56:00
2:56 PM,69.1,32.0,25,30.26,10.0,ENE,3.5,-,0.00,,Clear,60,2011-11-24 20:56:00
3:56 PM,66.9,34.0,30,30.28,10.0,NE,4.6,-,0.00,,Clear,40,2011-11-24 21:56:00
5:56 PM,54.0,39.0,57,30.30,10.0,Calm,Calm,-,N/A,,Clear,0,2011-11-24 23:56:00
6:56 PM,46.9,41.0,80,30.31,10.0,North,3.5,-,N/A,,Clear,360,2011-11-25 00:56:00
7:56 PM,46.9,39.9,77,30.31,10.0,Calm,Calm,-,N/A,,Clear,0,2011-11-25 01:56:00
8:56 PM,42.1,39.0,89,30.31,10.0,NE,4.6,-,N/A,,Clear,40,2011-11-25 02:56:00
9:56 PM,42.1,37.0,82,30.31,10.0,Calm,Calm,-,N/A,,Clear,0,2011-11-25 03:56:00
10:56 PM,41.0,36.0,82,30.30,10.0,Calm,Calm,-,0.00,,Clear,0,2011-11-25 04:56:00
11:56 PM,46.9,36.0,66,30.30,10.0,East,3.5,-,N/A,,Clear,90,2011-11-25 05:56:00